createdAt,value
2019-04-06T00:02:21.274Z,6.00
2019-04-06T00:04:49.937Z,6.00
2019-04-06T00:07:18.604Z,5.90
2019-04-06T00:09:47.314Z,5.90
2019-04-06T00:12:16.088Z,5.80
2019-04-06T00:14:44.649Z,5.70
2019-04-06T00:17:13.218Z,5.70
2019-04-06T00:19:41.883Z,5.70
2019-04-06T00:22:10.578Z,5.60
2019-04-06T00:24:39.145Z,5.60
2019-04-06T00:27:07.863Z,5.70
2019-04-06T00:29:36.457Z,5.60
2019-04-06T00:32:06.734Z,5.60
2019-04-06T00:34:35.603Z,5.50
2019-04-06T00:37:04.321Z,5.50
2019-04-06T00:39:32.994Z,5.60
2019-04-06T00:42:02.359Z,5.60
2019-04-06T00:44:30.914Z,5.50
2019-04-06T00:46:59.657Z,5.50
2019-04-06T00:49:28.717Z,5.50
2019-04-06T00:51:57.377Z,5.50
2019-04-06T00:54:25.961Z,5.50
2019-04-06T00:56:54.561Z,5.40
2019-04-06T00:59:23.244Z,5.30
2019-04-06T01:01:51.986Z,5.30
2019-04-06T01:04:20.694Z,5.20
2019-04-06T01:06:49.377Z,5.20
2019-04-06T01:09:19.117Z,5.20
2019-04-06T01:11:47.741Z,5.20
2019-04-06T01:14:16.368Z,5.20
2019-04-06T01:16:45.037Z,5.10
2019-04-06T01:19:13.735Z,5.10
2019-04-06T01:21:42.354Z,5.10
2019-04-06T01:24:11.030Z,5.00
2019-04-06T01:26:39.692Z,5.00
2019-04-06T01:29:08.347Z,5.00
2019-04-06T01:31:36.940Z,4.90
2019-04-06T01:34:05.570Z,4.90
2019-04-06T01:36:34.225Z,4.90
2019-04-06T01:39:02.800Z,4.80
2019-04-06T01:41:31.358Z,4.80
2019-04-06T01:43:59.929Z,4.80
2019-04-06T01:46:28.494Z,4.80
2019-04-06T01:48:57.133Z,4.70
2019-04-06T01:51:25.804Z,4.80
2019-04-06T01:53:54.397Z,4.70
2019-04-06T01:56:22.986Z,4.70
2019-04-06T01:58:51.620Z,4.70
2019-04-06T02:01:24.875Z,4.70
2019-04-06T02:03:53.690Z,4.60
2019-04-06T02:06:22.430Z,4.60
2019-04-06T02:08:51.052Z,4.70
2019-04-06T02:11:19.663Z,4.60
2019-04-06T02:13:48.366Z,4.70
2019-04-06T02:16:16.954Z,4.70
2019-04-06T02:18:45.542Z,4.70
2019-04-06T02:21:14.177Z,4.60
2019-04-06T02:23:42.750Z,4.60
2019-04-06T02:26:11.321Z,4.50
2019-04-06T02:28:39.927Z,4.50
2019-04-06T02:31:10.188Z,4.50
2019-04-06T02:33:52.741Z,4.50
2019-04-06T02:36:26.087Z,4.60
2019-04-06T02:38:59.145Z,4.50
2019-04-06T02:41:47.589Z,4.50
2019-04-06T02:44:16.257Z,4.40
2019-04-06T02:46:44.801Z,4.40
2019-04-06T02:49:13.764Z,4.40
2019-04-06T02:51:42.289Z,4.40
2019-04-06T02:54:10.927Z,4.40
2019-04-06T02:56:46.630Z,4.40
2019-04-06T02:59:10.107Z,4.40
2019-04-06T03:01:39.286Z,4.30
2019-04-06T03:04:08.030Z,4.30
2019-04-06T03:06:36.816Z,4.30
2019-04-06T03:09:06.424Z,4.30
2019-04-06T03:11:35.251Z,4.30
2019-04-06T03:14:04.785Z,4.30
2019-04-06T03:16:33.522Z,4.30
2019-04-06T03:19:02.370Z,4.30
2019-04-06T03:21:31.011Z,4.30
2019-04-06T03:23:59.705Z,4.30
2019-04-06T03:26:28.484Z,4.30
2019-04-06T03:28:58.533Z,4.30
2019-04-06T03:31:28.132Z,4.30
2019-04-06T03:33:57.631Z,4.30
2019-04-06T03:36:26.690Z,4.30
2019-04-06T03:38:55.364Z,4.30
2019-04-06T03:41:24.044Z,4.30
2019-04-06T03:43:52.647Z,4.30
2019-04-06T03:46:21.250Z,4.30
2019-04-06T03:48:49.894Z,4.30
2019-04-06T03:51:18.815Z,4.30
2019-04-06T03:53:47.457Z,4.40
2019-04-06T03:56:16.099Z,4.40
2019-04-06T03:58:44.734Z,4.30
2019-04-06T04:01:13.478Z,4.30
2019-04-06T04:03:42.266Z,4.30
2019-04-06T04:06:11.060Z,4.40
2019-04-06T04:08:39.916Z,4.40
2019-04-06T04:11:08.483Z,4.40
2019-04-06T04:13:37.285Z,4.40
2019-04-06T04:16:05.866Z,4.40
2019-04-06T04:18:34.743Z,4.50
2019-04-06T04:21:03.546Z,4.50
2019-04-06T04:23:32.185Z,4.50
2019-04-06T04:26:00.755Z,4.50
2019-04-06T04:28:29.700Z,4.50
2019-04-06T04:30:58.244Z,4.60
2019-04-06T04:33:26.882Z,4.60
2019-04-06T04:35:55.738Z,4.70
2019-04-06T04:38:25.092Z,4.70
2019-04-06T04:40:53.892Z,4.80
2019-04-06T04:43:22.493Z,4.80
2019-04-06T04:45:51.150Z,4.90
2019-04-06T04:48:19.918Z,4.90
2019-04-06T04:50:48.610Z,5.00
2019-04-06T04:53:17.180Z,5.00
2019-04-06T04:55:45.745Z,5.00
2019-04-06T04:58:14.436Z,5.10
2019-04-06T05:00:42.985Z,5.20
2019-04-06T05:03:11.624Z,5.20
2019-04-06T05:05:40.235Z,5.30
2019-04-06T05:08:08.826Z,5.30
2019-04-06T05:10:37.502Z,5.40
2019-04-06T05:13:06.277Z,5.50
2019-04-06T05:16:03.688Z,5.60
2019-04-06T05:18:32.384Z,5.70
2019-04-06T05:21:01.091Z,5.80
2019-04-06T05:23:29.753Z,5.80
2019-04-06T05:25:58.803Z,5.90
2019-04-06T05:28:27.862Z,6.00
2019-04-06T05:30:56.765Z,6.00
2019-04-06T05:33:25.519Z,6.10
2019-04-06T05:35:54.986Z,6.20
2019-04-06T05:38:24.013Z,6.30
2019-04-06T05:40:52.690Z,6.40
2019-04-06T05:43:21.328Z,6.50
2019-04-06T05:45:49.973Z,6.60
2019-04-06T05:48:18.898Z,6.60
2019-04-06T05:50:47.554Z,6.80
2019-04-06T05:53:16.147Z,6.80
2019-04-06T05:55:44.951Z,6.90
2019-04-06T05:58:13.551Z,7.00
2019-04-06T06:00:42.222Z,7.10
2019-04-06T06:03:11.446Z,7.20
2019-04-06T06:05:41.180Z,7.20
2019-04-06T06:08:10.290Z,7.30
2019-04-06T06:10:39.138Z,7.40
2019-04-06T06:13:07.850Z,7.50
2019-04-06T06:15:36.546Z,7.60
2019-04-06T06:18:05.586Z,7.70
2019-04-06T06:20:34.545Z,7.70
2019-04-06T06:23:03.571Z,7.90
2019-04-06T06:25:32.640Z,7.90
2019-04-06T06:28:01.400Z,8.00
2019-04-06T06:30:30.126Z,8.10
2019-04-06T06:32:58.981Z,8.20
2019-04-06T06:35:27.762Z,8.20
2019-04-06T06:37:56.356Z,8.30
2019-04-06T06:40:24.975Z,8.40
2019-04-06T06:42:53.791Z,8.50
2019-04-06T06:45:22.556Z,8.50
2019-04-06T06:47:51.137Z,8.50
2019-04-06T06:50:20.283Z,8.60
2019-04-06T06:52:49.104Z,8.70
2019-04-06T06:55:18.730Z,8.70
2019-04-06T06:57:49.154Z,8.80
2019-04-06T07:00:18.099Z,8.90
2019-04-06T07:02:47.128Z,9.00
2019-04-06T07:05:16.083Z,9.00
2019-04-06T07:07:44.782Z,9.10
2019-04-06T07:10:15.365Z,9.30
2019-04-06T07:12:44.015Z,9.30
2019-04-06T07:15:13.666Z,9.40
2019-04-06T07:17:42.607Z,9.60
2019-04-06T07:20:11.750Z,9.70
2019-04-06T07:22:40.548Z,9.80
2019-04-06T07:25:09.467Z,9.80
2019-04-06T07:27:38.075Z,9.90
2019-04-06T07:30:08.559Z,10.00
2019-04-06T07:32:37.197Z,10.10
2019-04-06T07:35:07.598Z,10.20
2019-04-06T07:37:36.585Z,10.30
2019-04-06T07:40:10.421Z,10.30
2019-04-06T07:42:39.058Z,10.40
2019-04-06T07:45:09.429Z,10.50
2019-04-06T07:47:38.090Z,10.60
2019-04-06T07:50:08.038Z,10.70
2019-04-06T07:52:37.024Z,10.80
2019-04-06T07:55:08.019Z,10.90
2019-04-06T07:57:37.782Z,11.00
2019-04-06T08:00:10.458Z,11.00
2019-04-06T08:02:39.532Z,11.10
2019-04-06T08:05:08.577Z,11.20
2019-04-06T08:07:37.260Z,11.30
2019-04-06T08:10:06.600Z,11.40
2019-04-06T08:12:35.433Z,11.50
2019-04-06T08:15:06.438Z,11.60
2019-04-06T08:17:35.163Z,11.70
2019-04-06T08:20:06.598Z,11.80
2019-04-06T08:22:35.189Z,11.80
2019-04-06T08:25:05.702Z,11.90
2019-04-06T08:27:34.529Z,12.00
2019-04-06T08:30:04.678Z,12.00
2019-04-06T08:32:33.313Z,12.10
2019-04-06T08:35:02.034Z,12.20
2019-04-06T08:37:31.055Z,12.30
2019-04-06T08:39:59.604Z,12.40
2019-04-06T08:42:28.222Z,12.50
2019-04-06T08:44:57.201Z,12.50
2019-04-06T08:47:25.760Z,12.50
2019-04-06T08:49:54.458Z,12.60
2019-04-06T08:52:23.278Z,12.60
2019-04-06T08:54:52.107Z,12.70
2019-04-06T08:57:22.571Z,12.80
2019-04-06T08:59:51.000Z,12.90
2019-04-06T09:02:19.650Z,13.00
2019-04-06T09:04:48.699Z,13.20
2019-04-06T09:07:17.814Z,13.60
2019-04-06T09:09:46.470Z,14.70
2019-04-06T09:12:15.407Z,16.20
2019-04-06T09:14:44.189Z,17.40
2019-04-06T09:17:13.038Z,18.60
2019-04-06T09:19:41.610Z,19.10
2019-04-06T09:22:10.461Z,19.60
2019-04-06T09:24:39.297Z,19.70
2019-04-06T09:27:08.109Z,19.80
2019-04-06T09:29:36.883Z,20.10
2019-04-06T09:32:05.868Z,20.50
2019-04-06T09:34:35.228Z,21.10
2019-04-06T09:37:04.360Z,21.90
2019-04-06T09:39:33.098Z,22.60
2019-04-06T09:42:02.005Z,23.60
2019-04-06T09:44:48.840Z,23.70
2019-04-06T09:47:21.935Z,23.20
2019-04-06T09:49:56.033Z,23.10
2019-04-06T09:52:26.303Z,23.10
2019-04-06T09:54:56.542Z,23.20
2019-04-06T09:57:36.352Z,23.30
2019-04-06T10:00:09.613Z,23.50
2019-04-06T10:02:40.060Z,23.60
2019-04-06T10:05:13.679Z,23.70
2019-04-06T10:08:04.372Z,23.80
2019-04-06T10:10:51.399Z,24.10
2019-04-06T10:13:33.682Z,24.20
2019-04-06T10:16:20.349Z,24.30
2019-04-06T10:18:51.071Z,24.10
2019-04-06T10:21:21.839Z,23.70
2019-04-06T10:23:58.625Z,23.80
2019-04-06T10:26:31.683Z,24.10
2019-04-06T10:29:05.447Z,23.70
2019-04-06T10:31:52.009Z,23.40
2019-04-06T10:34:27.973Z,24.00
2019-04-06T10:37:16.646Z,24.40
2019-04-06T10:39:55.973Z,24.30
2019-04-06T10:42:28.545Z,24.40
2019-04-06T10:45:07.441Z,24.90
2019-04-06T10:47:43.756Z,25.40
2019-04-06T10:50:31.798Z,25.10
2019-04-06T10:53:07.994Z,25.20
2019-04-06T10:55:54.222Z,25.80
2019-04-06T10:58:33.467Z,25.80
2019-04-06T11:01:20.619Z,27.20
2019-04-06T11:04:07.694Z,27.80
2019-04-06T11:06:40.924Z,27.80
2019-04-06T11:09:27.411Z,28.60
2019-04-06T11:12:00.654Z,28.70
2019-04-06T11:14:42.663Z,29.60
2019-04-06T11:17:18.659Z,29.30
2019-04-06T11:19:51.840Z,29.10
2019-04-06T11:22:22.242Z,29.50
2019-04-06T11:24:52.719Z,29.60
2019-04-06T11:27:39.313Z,29.20
2019-04-06T11:30:14.020Z,28.90
2019-04-06T11:32:43.070Z,29.00
2019-04-06T11:35:16.337Z,29.60
2019-04-06T11:37:58.561Z,29.70
2019-04-06T11:40:28.236Z,29.90
2019-04-06T11:43:14.816Z,30.10
2019-04-06T11:45:54.147Z,29.60
2019-04-06T11:48:30.576Z,29.70
2019-04-06T11:51:03.574Z,30.20
2019-04-06T11:53:50.007Z,30.00
2019-04-06T11:56:36.523Z,30.50
2019-04-06T11:59:07.006Z,30.20
2019-04-06T12:01:53.200Z,29.50
2019-04-06T12:04:38.158Z,28.90
2019-04-06T12:07:17.223Z,29.30
2019-04-06T12:09:47.501Z,30.10
2019-04-06T12:12:34.426Z,29.60
2019-04-06T12:15:11.035Z,29.00
2019-04-06T12:17:50.410Z,29.40
2019-04-06T12:20:39.346Z,30.20
2019-04-06T12:23:13.065Z,31.00
2019-04-06T12:25:56.022Z,31.90
2019-04-06T12:28:31.960Z,31.90
2019-04-06T12:31:07.983Z,32.00
2019-04-06T12:33:54.418Z,32.10
2019-04-06T12:36:25.086Z,32.40
2019-04-06T12:38:58.437Z,33.30
2019-04-06T12:41:34.538Z,31.90
2019-04-06T12:44:20.133Z,30.20
2019-04-06T12:47:07.302Z,29.50
2019-04-06T12:49:47.254Z,30.00
2019-04-06T12:52:17.983Z,30.20
2019-04-06T12:54:51.803Z,30.50
2019-04-06T12:57:38.559Z,29.80
2019-04-06T13:00:19.291Z,29.60
2019-04-06T13:02:49.670Z,30.10
2019-04-06T13:05:36.069Z,30.60
2019-04-06T13:08:18.555Z,30.70
2019-04-06T13:11:05.416Z,30.40
2019-04-06T13:13:42.070Z,30.60
2019-04-06T13:16:13.170Z,31.60
2019-04-06T13:18:44.000Z,31.10
2019-04-06T13:21:20.707Z,30.30
2019-04-06T13:24:06.646Z,30.50
2019-04-06T13:26:42.917Z,31.50
2019-04-06T13:29:29.945Z,31.80
2019-04-06T13:32:03.021Z,31.90
2019-04-06T13:34:33.285Z,31.00
2019-04-06T13:37:22.088Z,31.00
2019-04-06T13:39:52.861Z,30.30
2019-04-06T13:42:31.882Z,30.70
2019-04-06T13:45:05.112Z,31.20
2019-04-06T13:47:35.355Z,31.80
2019-04-06T13:50:26.378Z,31.60
2019-04-06T13:53:02.994Z,31.00
2019-04-06T13:55:41.988Z,30.50
2019-04-06T13:58:12.338Z,30.00
2019-04-06T14:00:49.010Z,29.90
2019-04-06T14:03:34.911Z,29.70
2019-04-06T14:06:14.310Z,29.70
2019-04-06T14:08:53.479Z,29.80
2019-04-06T14:11:23.788Z,28.80
2019-04-06T14:13:57.459Z,28.50
2019-04-06T14:16:30.876Z,28.70
2019-04-06T14:19:07.404Z,28.90
2019-04-06T14:21:43.574Z,29.80
2019-04-06T14:24:20.034Z,30.20
2019-04-06T14:27:06.709Z,31.10
2019-04-06T14:29:43.569Z,30.50
2019-04-06T14:32:23.473Z,30.60
2019-04-06T14:35:11.816Z,30.60
2019-04-06T14:37:50.787Z,29.20
2019-04-06T14:40:37.119Z,28.60
2019-04-06T14:43:10.098Z,28.60
2019-04-06T14:45:42.792Z,28.50
2019-04-06T14:48:28.130Z,28.60
2019-04-06T14:50:58.441Z,28.10
2019-04-06T14:53:45.074Z,27.60
2019-04-06T14:56:15.396Z,27.80
2019-04-06T14:59:03.727Z,27.90
2019-04-06T15:01:57.899Z,28.00
2019-04-06T15:04:41.185Z,28.20
2019-04-06T15:07:17.361Z,28.20
2019-04-06T15:09:47.582Z,28.10
2019-04-06T15:12:32.826Z,27.60
2019-04-06T15:15:12.640Z,27.00
2019-04-06T15:17:55.450Z,26.70
2019-04-06T15:20:26.117Z,26.40
2019-04-06T15:22:56.678Z,26.10
2019-04-06T15:25:45.578Z,26.20
2019-04-06T15:28:34.257Z,26.10
2019-04-06T15:31:04.732Z,25.60
2019-04-06T15:33:44.821Z,24.90
2019-04-06T15:36:18.346Z,24.50
2019-04-06T15:38:48.911Z,23.90
2019-04-06T15:41:31.107Z,23.20
2019-04-06T15:44:19.734Z,22.50
2019-04-06T15:46:56.461Z,22.00
2019-04-06T15:49:26.894Z,21.60
2019-04-06T15:52:15.725Z,21.20
2019-04-06T15:55:01.106Z,20.70
2019-04-06T15:57:32.063Z,20.10
2019-04-06T16:00:18.904Z,19.50
2019-04-06T16:02:58.226Z,19.00
2019-04-06T16:05:37.808Z,18.90
2019-04-06T16:08:15.123Z,18.90
2019-04-06T16:10:48.365Z,18.80
2019-04-06T16:13:34.367Z,18.70
2019-04-06T16:16:21.242Z,18.50
2019-04-06T16:19:08.136Z,18.20
2019-04-06T16:21:38.844Z,18.00
2019-04-06T16:24:09.711Z,17.90
2019-04-06T16:26:51.825Z,17.70
2019-04-06T16:29:38.789Z,17.60
2019-04-06T16:32:15.127Z,17.50
2019-04-06T16:35:01.334Z,17.40
2019-04-06T16:37:40.577Z,17.30
2019-04-06T16:40:26.173Z,17.10
2019-04-06T16:43:02.884Z,16.90
2019-04-06T16:45:45.438Z,16.80
2019-04-06T16:48:19.817Z,16.60
2019-04-06T16:50:50.015Z,16.40
2019-04-06T16:53:32.815Z,16.30
2019-04-06T16:56:12.697Z,16.10
2019-04-06T16:58:55.328Z,15.90
2019-04-06T17:01:43.758Z,15.70
2019-04-06T17:04:20.392Z,15.60
2019-04-06T17:06:51.138Z,15.50
2019-04-06T17:09:22.060Z,15.30
2019-04-06T17:12:01.510Z,15.20
2019-04-06T17:14:44.065Z,15.10
2019-04-06T17:17:29.482Z,14.90
2019-04-06T17:20:05.667Z,14.80
2019-04-06T17:22:52.681Z,14.60
2019-04-06T17:25:29.887Z,14.50
2019-04-06T17:28:11.418Z,14.30
2019-04-06T17:30:46.323Z,14.30
2019-04-06T17:33:22.575Z,14.10
2019-04-06T17:36:05.230Z,14.00
2019-04-06T17:38:52.206Z,13.80
2019-04-06T17:41:22.729Z,13.70
2019-04-06T17:43:55.962Z,13.60
2019-04-06T17:46:29.002Z,13.50
2019-04-06T17:49:16.232Z,13.40
2019-04-06T17:52:01.884Z,13.30
2019-04-06T17:54:35.350Z,13.10
2019-04-06T17:57:09.553Z,13.00
2019-04-06T17:59:56.316Z,12.90
2019-04-06T18:02:47.369Z,12.70
2019-04-06T18:05:12.442Z,12.70
2019-04-06T20:44:05.438Z,9.10
2019-04-06T20:46:34.486Z,9.10
2019-04-06T20:49:03.226Z,9.00
2019-04-06T20:51:31.790Z,9.00
2019-04-06T20:54:00.869Z,8.90
2019-04-06T20:56:29.836Z,8.80
2019-04-06T20:58:58.722Z,8.80
2019-04-06T21:01:27.704Z,8.80
2019-04-06T21:04:01.112Z,8.70
2019-04-06T21:06:26.859Z,8.70
2019-04-06T21:08:56.106Z,8.70
2019-04-06T21:11:25.405Z,8.70
2019-04-06T21:13:55.170Z,8.60
2019-04-06T21:16:23.939Z,8.60
2019-04-06T21:18:52.522Z,8.60
2019-04-06T21:21:21.095Z,8.60
2019-04-06T21:23:49.836Z,8.50
2019-04-06T21:26:18.434Z,8.50
2019-04-06T21:28:48.832Z,8.50
2019-04-06T21:31:17.710Z,8.40
2019-04-06T21:33:46.750Z,8.40
2019-04-06T21:36:16.282Z,8.30
2019-04-06T21:38:45.572Z,8.30
2019-04-06T21:41:14.965Z,8.20
2019-04-06T21:43:43.780Z,8.20
2019-04-06T21:46:14.322Z,8.10
2019-04-06T21:48:42.843Z,8.10
2019-04-06T21:51:11.492Z,8.00
2019-04-06T21:53:40.244Z,8.00
2019-04-06T21:56:09.193Z,8.00
2019-04-06T21:58:38.093Z,8.00
2019-04-06T22:01:08.382Z,7.90
2019-04-06T22:03:37.020Z,7.90
2019-04-06T22:06:06.381Z,7.90
2019-04-06T22:08:35.149Z,7.90
2019-04-06T22:11:04.432Z,7.90
2019-04-06T22:13:33.233Z,7.90
2019-04-06T22:16:02.273Z,7.80
2019-04-06T22:18:30.997Z,7.80
2019-04-06T22:20:59.645Z,7.80
2019-04-06T22:23:40.417Z,7.70
2019-04-06T22:25:58.592Z,7.70
2019-04-06T22:28:27.205Z,7.70
2019-04-06T22:30:56.261Z,7.60
2019-04-06T22:33:25.122Z,7.60
2019-04-06T22:35:54.152Z,7.60
2019-04-06T22:38:22.854Z,7.60
2019-04-06T22:40:52.015Z,7.60
2019-04-06T22:43:20.797Z,7.50
2019-04-06T22:45:49.366Z,7.50
2019-04-06T22:48:18.507Z,7.50
2019-04-06T22:50:47.470Z,7.40
2019-04-06T22:53:16.578Z,7.40
2019-04-06T22:55:45.866Z,7.40
2019-04-06T22:58:14.598Z,7.30
2019-04-06T23:00:48.613Z,7.30
2019-04-06T23:03:27.645Z,7.30
2019-04-06T23:06:07.409Z,7.30
2019-04-06T23:08:36.451Z,7.30
2019-04-06T23:11:06.287Z,7.30
2019-04-06T23:13:35.182Z,7.20
2019-04-06T23:16:04.700Z,7.20
2019-04-06T23:18:33.433Z,7.20
2019-04-06T23:21:02.968Z,7.20
2019-04-06T23:23:31.767Z,7.20
2019-04-06T23:26:00.974Z,7.10
2019-04-06T23:28:29.749Z,7.10
2019-04-06T23:30:58.656Z,7.10
2019-04-06T23:33:28.019Z,7.10
2019-04-06T23:35:57.243Z,7.10
2019-04-06T23:38:26.032Z,7.10
2019-04-06T23:40:54.864Z,7.00
2019-04-06T23:43:23.509Z,7.00
2019-04-06T23:45:52.633Z,7.00
2019-04-06T23:48:21.943Z,7.00
2019-04-06T23:50:50.690Z,6.90
2019-04-06T23:53:19.374Z,6.90
2019-04-06T23:55:48.002Z,6.90
2019-04-06T23:58:16.881Z,6.90
